CFG17E EGSS-EDDW
Flight info
| Callsign | CFG17E |
|---|---|
| Flight time | 0h 59m |
| Altitude | 35000 |
| Route | CLN P44 SOMVA DCT MAVAS DCT ANDIK M105 REVLA T948 GIBMA GIBMA2P |
| Aircraft | A321/M-SDE3FGHIRWY/LB1 |
Departure
| Time | 2026-05-06 11:11 |
|---|---|
| Airport | London Stansted Airport (EGSS) |
Arrival
| Time | 2026-05-06 12:10 |
|---|---|
| Airport | Bremen Airport (EDDW) |
| Time | Latitude | Longitude | Altitude | Speed | Heading |
|---|---|---|---|---|---|
| 2026-05-06 10:48 | 51.89265 | 0.25913 | 349 ft | 0 kts | 43° |
| 2026-05-06 10:59 | 51.89264 | 0.25912 | 349 ft | 0 kts | 43° |
| 2026-05-06 10:59 | 51.89263 | 0.25910 | 349 ft | 0 kts | 43° |
| 2026-05-06 11:00 | 51.89254 | 0.25896 | 349 ft | 3 kts | 43° |
| 2026-05-06 11:00 | 51.89232 | 0.25863 | 347 ft | 1 kts | 43° |
| 2026-05-06 11:00 | 51.89227 | 0.25855 | 346 ft | 2 kts | 43° |
| 2026-05-06 11:00 | 51.89209 | 0.25828 | 345 ft | 3 kts | 42° |
| 2026-05-06 11:02 | 51.89212 | 0.25831 | 345 ft | 1 kts | 29° |
| 2026-05-06 11:02 | 51.89225 | 0.25834 | 345 ft | 1 kts | 358° |
| 2026-05-06 11:02 | 51.89240 | 0.25824 | 345 ft | 4 kts | 330° |
| 2026-05-06 11:03 | 51.89271 | 0.25781 | 345 ft | 7 kts | 313° |
| 2026-05-06 11:03 | 51.89316 | 0.25701 | 345 ft | 10 kts | 313° |
| 2026-05-06 11:03 | 51.89363 | 0.25604 | 345 ft | 10 kts | 298° |
| 2026-05-06 11:03 | 51.89405 | 0.25503 | 346 ft | 10 kts | 304° |
| 2026-05-06 11:04 | 51.89406 | 0.25394 | 346 ft | 10 kts | 229° |
| 2026-05-06 11:04 | 51.89350 | 0.25303 | 344 ft | 12 kts | 224° |
| 2026-05-06 11:04 | 51.89284 | 0.25206 | 343 ft | 13 kts | 221° |
| 2026-05-06 11:04 | 51.89227 | 0.25078 | 342 ft | 14 kts | 237° |
| 2026-05-06 11:05 | 51.89162 | 0.24950 | 341 ft | 14 kts | 220° |
| 2026-05-06 11:05 | 51.89080 | 0.24828 | 337 ft | 17 kts | 223° |
| 2026-05-06 11:05 | 51.88990 | 0.24691 | 337 ft | 17 kts | 223° |
| 2026-05-06 11:05 | 51.88898 | 0.24546 | 335 ft | 18 kts | 224° |
| 2026-05-06 11:06 | 51.88802 | 0.24405 | 333 ft | 19 kts | 221° |
| 2026-05-06 11:06 | 51.88702 | 0.24259 | 332 ft | 19 kts | 223° |
| 2026-05-06 11:06 | 51.88605 | 0.24114 | 333 ft | 19 kts | 223° |
| 2026-05-06 11:06 | 51.88510 | 0.23970 | 335 ft | 17 kts | 223° |
| 2026-05-06 11:07 | 51.88425 | 0.23843 | 337 ft | 16 kts | 221° |
| 2026-05-06 11:07 | 51.88342 | 0.23723 | 337 ft | 16 kts | 222° |
| 2026-05-06 11:07 | 51.88260 | 0.23599 | 340 ft | 15 kts | 223° |
| 2026-05-06 11:07 | 51.88181 | 0.23478 | 341 ft | 16 kts | 224° |
| 2026-05-06 11:08 | 51.88098 | 0.23363 | 343 ft | 15 kts | 221° |
| 2026-05-06 11:08 | 51.88013 | 0.23232 | 341 ft | 17 kts | 223° |
| 2026-05-06 11:08 | 51.87923 | 0.23095 | 341 ft | 17 kts | 223° |
| 2026-05-06 11:08 | 51.87833 | 0.22957 | 341 ft | 17 kts | 223° |
| 2026-05-06 11:09 | 51.87742 | 0.22817 | 339 ft | 18 kts | 221° |
| 2026-05-06 11:09 | 51.87644 | 0.22670 | 337 ft | 19 kts | 223° |
| 2026-05-06 11:09 | 51.87555 | 0.22541 | 338 ft | 15 kts | 222° |
| 2026-05-06 11:09 | 51.87542 | 0.22398 | 338 ft | 13 kts | 296° |
| 2026-05-06 11:10 | 51.87606 | 0.22288 | 338 ft | 13 kts | 327° |
| 2026-05-06 11:10 | 51.87699 | 0.22292 | 340 ft | 15 kts | 29° |
| 2026-05-06 11:10 | 51.87931 | 0.22624 | 341 ft | 79 kts | 42° |
| 2026-05-06 11:10 | 51.88496 | 0.23476 | 342 ft | 140 kts | 41° |
| 2026-05-06 11:11 | 51.89314 | 0.24709 | 524 ft | 173 kts | 40° |
| 2026-05-06 11:11 | 51.90196 | 0.26025 | 1178 ft | 175 kts | 40° |
| 2026-05-06 11:11 | 51.91019 | 0.27432 | 1937 ft | 175 kts | 49° |
| 2026-05-06 11:11 | 51.91560 | 0.29179 | 2467 ft | 180 kts | 68° |
| 2026-05-06 11:12 | 51.91772 | 0.31239 | 2694 ft | 201 kts | 92° |
| 2026-05-06 11:12 | 51.91267 | 0.33473 | 2954 ft | 220 kts | 110° |
| 2026-05-06 11:12 | 51.90573 | 0.35802 | 3187 ft | 239 kts | 112° |
| 2026-05-06 11:12 | 51.89798 | 0.38257 | 3493 ft | 256 kts | 113° |
| 2026-05-06 11:13 | 51.88969 | 0.40896 | 3870 ft | 263 kts | 113° |
| 2026-05-06 11:13 | 51.88164 | 0.43524 | 3951 ft | 262 kts | 112° |
| 2026-05-06 11:13 | 51.87371 | 0.46167 | 3953 ft | 262 kts | 112° |
| 2026-05-06 11:13 | 51.86583 | 0.48830 | 3949 ft | 262 kts | 112° |
| 2026-05-06 11:14 | 51.85799 | 0.51492 | 3950 ft | 262 kts | 112° |
| 2026-05-06 11:14 | 51.85018 | 0.54150 | 3955 ft | 262 kts | 112° |
| 2026-05-06 11:14 | 51.84242 | 0.56788 | 3958 ft | 262 kts | 112° |
| 2026-05-06 11:14 | 51.83436 | 0.59438 | 3969 ft | 265 kts | 116° |
| 2026-05-06 11:15 | 51.82589 | 0.62109 | 4332 ft | 269 kts | 103° |
| 2026-05-06 11:15 | 51.82435 | 0.65053 | 4803 ft | 260 kts | 81° |
| 2026-05-06 11:15 | 51.82730 | 0.67942 | 4944 ft | 259 kts | 78° |
| 2026-05-06 11:15 | 51.83026 | 0.70813 | 4951 ft | 259 kts | 80° |
| 2026-05-06 11:16 | 51.83249 | 0.73723 | 5002 ft | 263 kts | 82° |
| 2026-05-06 11:16 | 51.83408 | 0.76677 | 5504 ft | 266 kts | 84° |
| 2026-05-06 11:16 | 51.83540 | 0.79626 | 5873 ft | 264 kts | 84° |
| 2026-05-06 11:16 | 51.83658 | 0.82577 | 5932 ft | 263 kts | 85° |
| 2026-05-06 11:17 | 51.83771 | 0.85541 | 5941 ft | 263 kts | 85° |
| 2026-05-06 11:17 | 51.83883 | 0.88504 | 5945 ft | 263 kts | 85° |
| 2026-05-06 11:17 | 51.83992 | 0.91422 | 5942 ft | 264 kts | 85° |
| 2026-05-06 11:17 | 51.84102 | 0.94386 | 5953 ft | 264 kts | 85° |
| 2026-05-06 11:18 | 51.84212 | 0.97336 | 5949 ft | 264 kts | 85° |
| 2026-05-06 11:18 | 51.84321 | 1.00321 | 5951 ft | 265 kts | 85° |
| 2026-05-06 11:18 | 51.84428 | 1.03278 | 5939 ft | 265 kts | 85° |
| 2026-05-06 11:18 | 51.84536 | 1.06269 | 5943 ft | 265 kts | 85° |
| 2026-05-06 11:19 | 51.84643 | 1.09246 | 5953 ft | 264 kts | 85° |
| 2026-05-06 11:19 | 51.84749 | 1.12191 | 5954 ft | 264 kts | 84° |
| 2026-05-06 11:19 | 51.85040 | 1.15077 | 5940 ft | 262 kts | 73° |
| 2026-05-06 11:19 | 51.85659 | 1.17877 | 6144 ft | 268 kts | 66° |
| 2026-05-06 11:20 | 51.86396 | 1.20623 | 6889 ft | 268 kts | 65° |
| 2026-05-06 11:20 | 51.87149 | 1.23388 | 7622 ft | 269 kts | 65° |
| 2026-05-06 11:20 | 51.87902 | 1.26153 | 8251 ft | 274 kts | 65° |
| 2026-05-06 11:20 | 51.88669 | 1.28987 | 8878 ft | 278 kts | 65° |
| 2026-05-06 11:21 | 51.89451 | 1.31882 | 9502 ft | 281 kts | 65° |
| 2026-05-06 11:21 | 51.90223 | 1.34752 | 10108 ft | 285 kts | 65° |
| 2026-05-06 11:21 | 51.91029 | 1.37749 | 10511 ft | 298 kts | 65° |
| 2026-05-06 11:21 | 51.91879 | 1.40915 | 10799 ft | 313 kts | 65° |
| 2026-05-06 11:22 | 51.92754 | 1.44182 | 11096 ft | 327 kts | 65° |
| 2026-05-06 11:22 | 51.93675 | 1.47631 | 11604 ft | 333 kts | 65° |
| 2026-05-06 11:22 | 51.94583 | 1.51039 | 12190 ft | 336 kts | 65° |
| 2026-05-06 11:22 | 51.95517 | 1.54553 | 12762 ft | 340 kts | 65° |
| 2026-05-06 11:23 | 51.96450 | 1.58065 | 13320 ft | 343 kts | 65° |
| 2026-05-06 11:23 | 51.97391 | 1.61617 | 13863 ft | 347 kts | 65° |
| 2026-05-06 11:23 | 51.98349 | 1.65232 | 14404 ft | 350 kts | 66° |
| 2026-05-06 11:23 | 51.99363 | 1.68825 | 14933 ft | 353 kts | 63° |
| 2026-05-06 11:24 | 52.00516 | 1.72382 | 15462 ft | 356 kts | 61° |
| 2026-05-06 11:24 | 52.01682 | 1.75869 | 15961 ft | 359 kts | 60° |
| 2026-05-06 11:24 | 52.02882 | 1.79446 | 16456 ft | 363 kts | 60° |
| 2026-05-06 11:24 | 52.04085 | 1.83044 | 16947 ft | 366 kts | 60° |
| 2026-05-06 11:25 | 52.05299 | 1.86688 | 17433 ft | 369 kts | 61° |
| 2026-05-06 11:25 | 52.06517 | 1.90355 | 17919 ft | 371 kts | 61° |
| 2026-05-06 11:25 | 52.07749 | 1.94072 | 18390 ft | 374 kts | 61° |
| 2026-05-06 11:25 | 52.08978 | 1.97783 | 18840 ft | 377 kts | 61° |
| 2026-05-06 11:26 | 52.10220 | 2.01543 | 19278 ft | 380 kts | 61° |
| 2026-05-06 11:26 | 52.11468 | 2.05325 | 19710 ft | 383 kts | 61° |
| 2026-05-06 11:26 | 52.12725 | 2.09142 | 20138 ft | 386 kts | 61° |
| 2026-05-06 11:26 | 52.13994 | 2.13001 | 20569 ft | 389 kts | 61° |
| 2026-05-06 11:27 | 52.15266 | 2.16873 | 20991 ft | 391 kts | 61° |
| 2026-05-06 11:27 | 52.16548 | 2.20785 | 21406 ft | 394 kts | 61° |
| 2026-05-06 11:27 | 52.17847 | 2.24749 | 21813 ft | 397 kts | 61° |
| 2026-05-06 11:27 | 52.19138 | 2.28699 | 22217 ft | 399 kts | 61° |
| 2026-05-06 11:28 | 52.20444 | 2.32700 | 22607 ft | 402 kts | 61° |
| 2026-05-06 11:28 | 52.21758 | 2.36733 | 22985 ft | 405 kts | 61° |
| 2026-05-06 11:28 | 52.23075 | 2.40781 | 23370 ft | 407 kts | 61° |
| 2026-05-06 11:28 | 52.24398 | 2.44854 | 23739 ft | 410 kts | 61° |
| 2026-05-06 11:29 | 52.25726 | 2.48949 | 24103 ft | 413 kts | 62° |
| 2026-05-06 11:29 | 52.27061 | 2.53076 | 24483 ft | 415 kts | 62° |
| 2026-05-06 11:29 | 52.28406 | 2.57240 | 24861 ft | 417 kts | 62° |
| 2026-05-06 11:29 | 52.29709 | 2.61452 | 25221 ft | 419 kts | 65° |
| 2026-05-06 11:30 | 52.30846 | 2.65837 | 25574 ft | 421 kts | 70° |
| 2026-05-06 11:30 | 52.31796 | 2.70420 | 25933 ft | 423 kts | 74° |
| 2026-05-06 11:30 | 52.32612 | 2.74972 | 26291 ft | 424 kts | 75° |
| 2026-05-06 11:30 | 52.33420 | 2.79619 | 26625 ft | 427 kts | 75° |
| 2026-05-06 11:31 | 52.34227 | 2.84278 | 26937 ft | 429 kts | 75° |
| 2026-05-06 11:31 | 52.35038 | 2.88942 | 27254 ft | 431 kts | 75° |
| 2026-05-06 11:31 | 52.35867 | 2.93698 | 27586 ft | 433 kts | 75° |
| 2026-05-06 11:31 | 52.36685 | 2.98393 | 27895 ft | 434 kts | 75° |
| 2026-05-06 11:32 | 52.37513 | 3.03149 | 28192 ft | 436 kts | 75° |
| 2026-05-06 11:32 | 52.38339 | 3.07907 | 28484 ft | 438 kts | 75° |
| 2026-05-06 11:32 | 52.39168 | 3.12703 | 28779 ft | 440 kts | 75° |
| 2026-05-06 11:32 | 52.39997 | 3.17514 | 29068 ft | 441 kts | 75° |
| 2026-05-06 11:33 | 52.40833 | 3.22377 | 29344 ft | 443 kts | 75° |
| 2026-05-06 11:33 | 52.41654 | 3.27175 | 29608 ft | 445 kts | 75° |
| 2026-05-06 11:33 | 52.42491 | 3.32081 | 29874 ft | 447 kts | 75° |
| 2026-05-06 11:33 | 52.43318 | 3.36933 | 30135 ft | 448 kts | 75° |
| 2026-05-06 11:34 | 52.44161 | 3.41894 | 30396 ft | 450 kts | 75° |
| 2026-05-06 11:34 | 52.44988 | 3.46775 | 30716 ft | 449 kts | 75° |
| 2026-05-06 11:34 | 52.45826 | 3.51730 | 31074 ft | 448 kts | 75° |
| 2026-05-06 11:34 | 52.46643 | 3.56580 | 31391 ft | 447 kts | 75° |
| 2026-05-06 11:35 | 52.47465 | 3.61478 | 31704 ft | 446 kts | 75° |
| 2026-05-06 11:35 | 52.48288 | 3.66392 | 32011 ft | 445 kts | 76° |
| 2026-05-06 11:35 | 52.49098 | 3.71239 | 32301 ft | 444 kts | 76° |
| 2026-05-06 11:35 | 52.49907 | 3.76100 | 32593 ft | 443 kts | 76° |
| 2026-05-06 11:36 | 52.50725 | 3.81019 | 32877 ft | 442 kts | 76° |
| 2026-05-06 11:36 | 52.51530 | 3.85878 | 33149 ft | 442 kts | 76° |
| 2026-05-06 11:36 | 52.52329 | 3.90710 | 33389 ft | 442 kts | 76° |
| 2026-05-06 11:36 | 52.53135 | 3.95606 | 33597 ft | 442 kts | 76° |
| 2026-05-06 11:37 | 52.53930 | 4.00449 | 33793 ft | 443 kts | 75° |
| 2026-05-06 11:37 | 52.54725 | 4.05307 | 33987 ft | 444 kts | 75° |
| 2026-05-06 11:37 | 52.55529 | 4.10226 | 34178 ft | 444 kts | 75° |
| 2026-05-06 11:37 | 52.56323 | 4.15101 | 34354 ft | 445 kts | 75° |
| 2026-05-06 11:38 | 52.57117 | 4.19984 | 34513 ft | 445 kts | 75° |
| 2026-05-06 11:38 | 52.57909 | 4.24875 | 34675 ft | 446 kts | 75° |
| 2026-05-06 11:38 | 52.58710 | 4.29833 | 34822 ft | 446 kts | 75° |
| 2026-05-06 11:39 | 52.60288 | 4.39648 | 34889 ft | 448 kts | 76° |
| 2026-05-06 11:39 | 52.61869 | 4.49541 | 34895 ft | 448 kts | 76° |
| 2026-05-06 11:40 | 52.63437 | 4.59423 | 34893 ft | 448 kts | 76° |
| 2026-05-06 11:40 | 52.65004 | 4.69344 | 34888 ft | 448 kts | 76° |
| 2026-05-06 11:41 | 52.66567 | 4.79297 | 34891 ft | 448 kts | 76° |
| 2026-05-06 11:41 | 52.68108 | 4.89169 | 34889 ft | 448 kts | 76° |
| 2026-05-06 11:42 | 52.69659 | 4.99168 | 34885 ft | 447 kts | 76° |
| 2026-05-06 11:42 | 52.71188 | 5.09085 | 34885 ft | 447 kts | 76° |
| 2026-05-06 11:43 | 52.72706 | 5.19005 | 34884 ft | 448 kts | 76° |
| 2026-05-06 11:43 | 52.74336 | 5.28844 | 34884 ft | 449 kts | 72° |
| 2026-05-06 11:44 | 52.77436 | 5.43344 | 34884 ft | 449 kts | 71° |
| 2026-05-06 11:44 | 52.79529 | 5.53033 | 34887 ft | 449 kts | 71° |
| 2026-05-06 11:45 | 52.81605 | 5.62718 | 34889 ft | 448 kts | 71° |
| 2026-05-06 11:45 | 52.83672 | 5.72421 | 34891 ft | 448 kts | 72° |
| 2026-05-06 11:46 | 52.85733 | 5.82149 | 34892 ft | 448 kts | 72° |
| 2026-05-06 11:46 | 52.87775 | 5.91835 | 34900 ft | 448 kts | 72° |
| 2026-05-06 11:47 | 52.89816 | 6.01554 | 34887 ft | 448 kts | 72° |
| 2026-05-06 11:47 | 52.91847 | 6.11273 | 34873 ft | 448 kts | 72° |
| 2026-05-06 11:48 | 52.93868 | 6.20994 | 34868 ft | 448 kts | 72° |
| 2026-05-06 11:48 | 52.95874 | 6.30692 | 34858 ft | 446 kts | 72° |
| 2026-05-06 11:49 | 52.96872 | 6.35534 | 34626 ft | 442 kts | 72° |
| 2026-05-06 11:49 | 52.97860 | 6.40338 | 33904 ft | 446 kts | 72° |
| 2026-05-06 11:49 | 52.98718 | 6.45243 | 33419 ft | 439 kts | 80° |
| 2026-05-06 11:49 | 52.99109 | 6.50195 | 33162 ft | 433 kts | 87° |
| 2026-05-06 11:50 | 52.99283 | 6.55157 | 32903 ft | 433 kts | 88° |
| 2026-05-06 11:50 | 52.99419 | 6.60098 | 32647 ft | 432 kts | 89° |
| 2026-05-06 11:50 | 52.99554 | 6.65032 | 32227 ft | 432 kts | 89° |
| 2026-05-06 11:50 | 52.99695 | 6.70064 | 31196 ft | 441 kts | 89° |
| 2026-05-06 11:51 | 52.99840 | 6.75176 | 29909 ft | 452 kts | 89° |
| 2026-05-06 11:51 | 52.99991 | 6.80385 | 28952 ft | 454 kts | 89° |
| 2026-05-06 11:51 | 53.00142 | 6.85556 | 28384 ft | 448 kts | 89° |
| 2026-05-06 11:51 | 53.00292 | 6.90661 | 27948 ft | 439 kts | 89° |
| 2026-05-06 11:52 | 53.00440 | 6.95690 | 27562 ft | 430 kts | 89° |
| 2026-05-06 11:52 | 53.00578 | 7.00520 | 27199 ft | 421 kts | 88° |
| 2026-05-06 11:52 | 53.00715 | 7.05353 | 26849 ft | 418 kts | 88° |
| 2026-05-06 11:52 | 53.00849 | 7.10155 | 26499 ft | 416 kts | 88° |
| 2026-05-06 11:53 | 53.00980 | 7.14884 | 26157 ft | 414 kts | 88° |
| 2026-05-06 11:53 | 53.01110 | 7.19660 | 25785 ft | 411 kts | 88° |
| 2026-05-06 11:53 | 53.01234 | 7.24327 | 25371 ft | 409 kts | 88° |
| 2026-05-06 11:53 | 53.01357 | 7.29027 | 24925 ft | 406 kts | 88° |
| 2026-05-06 11:54 | 53.01479 | 7.33687 | 24470 ft | 403 kts | 88° |
| 2026-05-06 11:54 | 53.01595 | 7.38251 | 24024 ft | 399 kts | 88° |
| 2026-05-06 11:54 | 53.01710 | 7.42816 | 23576 ft | 396 kts | 88° |
| 2026-05-06 11:54 | 53.01823 | 7.47388 | 23136 ft | 392 kts | 89° |
| 2026-05-06 11:55 | 53.01933 | 7.51872 | 22687 ft | 389 kts | 88° |
| 2026-05-06 11:55 | 53.02038 | 7.56299 | 22259 ft | 385 kts | 88° |
| 2026-05-06 11:55 | 53.02144 | 7.60737 | 21813 ft | 382 kts | 88° |
| 2026-05-06 11:55 | 53.02243 | 7.65027 | 21389 ft | 378 kts | 89° |
| 2026-05-06 11:56 | 53.02344 | 7.69440 | 20947 ft | 375 kts | 88° |
| 2026-05-06 11:56 | 53.02441 | 7.73776 | 20497 ft | 372 kts | 89° |
| 2026-05-06 11:56 | 53.02537 | 7.78005 | 20068 ft | 369 kts | 89° |
| 2026-05-06 11:56 | 53.02628 | 7.82217 | 19644 ft | 366 kts | 89° |
| 2026-05-06 11:57 | 53.02719 | 7.86401 | 19210 ft | 363 kts | 89° |
| 2026-05-06 11:57 | 53.02811 | 7.90610 | 18774 ft | 360 kts | 89° |
| 2026-05-06 11:57 | 53.02896 | 7.94735 | 18354 ft | 358 kts | 89° |
| 2026-05-06 11:57 | 53.02977 | 7.98830 | 17945 ft | 356 kts | 90° |
| 2026-05-06 11:58 | 53.03055 | 8.02881 | 17504 ft | 354 kts | 89° |
| 2026-05-06 11:58 | 53.03135 | 8.06941 | 17066 ft | 352 kts | 89° |
| 2026-05-06 11:58 | 53.03218 | 8.11028 | 16624 ft | 351 kts | 88° |
| 2026-05-06 11:58 | 53.03363 | 8.15017 | 16196 ft | 349 kts | 86° |
| 2026-05-06 11:59 | 53.03502 | 8.19052 | 15754 ft | 347 kts | 87° |
| 2026-05-06 11:59 | 53.03605 | 8.22982 | 15334 ft | 344 kts | 88° |
| 2026-05-06 11:59 | 53.03928 | 8.26924 | 14894 ft | 342 kts | 72° |
| 2026-05-06 11:59 | 53.05047 | 8.30326 | 14473 ft | 340 kts | 50° |
| 2026-05-06 12:00 | 53.06864 | 8.32795 | 13957 ft | 343 kts | 29° |
| 2026-05-06 12:00 | 53.09158 | 8.33991 | 13364 ft | 349 kts | 9° |
| 2026-05-06 12:00 | 53.11563 | 8.34044 | 12755 ft | 346 kts | 352° |
| 2026-05-06 12:00 | 53.13775 | 8.32722 | 12146 ft | 341 kts | 329° |
| 2026-05-06 12:01 | 53.15503 | 8.30129 | 11538 ft | 338 kts | 307° |
| 2026-05-06 12:01 | 53.16503 | 8.26588 | 10928 ft | 337 kts | 284° |
| 2026-05-06 12:01 | 53.16604 | 8.22776 | 10319 ft | 332 kts | 261° |
| 2026-05-06 12:01 | 53.15813 | 8.19240 | 9721 ft | 327 kts | 237° |
| 2026-05-06 12:02 | 53.14275 | 8.16563 | 9118 ft | 321 kts | 212° |
| 2026-05-06 12:02 | 53.12256 | 8.15151 | 8512 ft | 314 kts | 189° |
| 2026-05-06 12:02 | 53.10110 | 8.14567 | 7901 ft | 310 kts | 185° |
| 2026-05-06 12:02 | 53.07984 | 8.14142 | 7290 ft | 308 kts | 183° |
| 2026-05-06 12:03 | 53.05902 | 8.14390 | 6673 ft | 303 kts | 159° |
| 2026-05-06 12:03 | 53.04118 | 8.16068 | 6260 ft | 288 kts | 132° |
| 2026-05-06 12:03 | 53.03085 | 8.18673 | 6098 ft | 262 kts | 105° |
| 2026-05-06 12:03 | 53.02926 | 8.21600 | 5978 ft | 254 kts | 82° |
| 2026-05-06 12:04 | 53.03174 | 8.24471 | 5854 ft | 252 kts | 81° |
| 2026-05-06 12:04 | 53.03400 | 8.27391 | 5574 ft | 252 kts | 81° |
| 2026-05-06 12:04 | 53.03595 | 8.30281 | 5215 ft | 251 kts | 83° |
| 2026-05-06 12:04 | 53.03727 | 8.33153 | 4856 ft | 250 kts | 84° |
| 2026-05-06 12:05 | 53.03817 | 8.36025 | 4494 ft | 249 kts | 85° |
| 2026-05-06 12:05 | 53.03880 | 8.38867 | 4135 ft | 247 kts | 85° |
| 2026-05-06 12:05 | 53.03934 | 8.41710 | 3774 ft | 245 kts | 85° |
| 2026-05-06 12:05 | 53.03983 | 8.44459 | 3597 ft | 237 kts | 85° |
| 2026-05-06 12:06 | 53.04032 | 8.47205 | 3467 ft | 238 kts | 85° |
| 2026-05-06 12:06 | 53.04083 | 8.49952 | 3282 ft | 237 kts | 85° |
| 2026-05-06 12:06 | 53.04135 | 8.52679 | 2958 ft | 236 kts | 85° |
| 2026-05-06 12:06 | 53.04187 | 8.55369 | 2636 ft | 233 kts | 84° |
| 2026-05-06 12:07 | 53.04238 | 8.58007 | 2325 ft | 220 kts | 84° |
| 2026-05-06 12:07 | 53.04286 | 8.60456 | 2029 ft | 206 kts | 83° |
| 2026-05-06 12:07 | 53.04333 | 8.62743 | 1757 ft | 194 kts | 82° |
| 2026-05-06 12:07 | 53.04377 | 8.64880 | 1588 ft | 176 kts | 82° |
| 2026-05-06 12:08 | 53.04418 | 8.66820 | 1342 ft | 162 kts | 83° |
| 2026-05-06 12:08 | 53.04458 | 8.68618 | 1082 ft | 150 kts | 83° |
| 2026-05-06 12:08 | 53.04484 | 8.70288 | 875 ft | 142 kts | 84° |
| 2026-05-06 12:08 | 53.04517 | 8.71917 | 718 ft | 142 kts | 84° |
| 2026-05-06 12:09 | 53.04552 | 8.73557 | 519 ft | 141 kts | 84° |
| 2026-05-06 12:09 | 53.04590 | 8.75180 | 289 ft | 140 kts | 84° |
| 2026-05-06 12:09 | 53.04635 | 8.76785 | 118 ft | 140 kts | 84° |
| 2026-05-06 12:09 | 53.04674 | 8.78365 | 13 ft | 129 kts | 85° |
| 2026-05-06 12:10 | 53.04708 | 8.79478 | 15 ft | 54 kts | 88° |
| 2026-05-06 12:10 | 53.04722 | 8.79897 | 19 ft | 27 kts | 67° |
| 2026-05-06 12:10 | 53.04796 | 8.79978 | 21 ft | 0 kts | 4° |
| 2026-05-06 12:11 | 53.04810 | 8.79977 | 21 ft | 4 kts | 352° |
| 2026-05-06 12:11 | 53.04851 | 8.79939 | 21 ft | 9 kts | 309° |
| 2026-05-06 12:12 | 53.04872 | 8.79822 | 21 ft | 9 kts | 245° |
| 2026-05-06 12:12 | 53.04865 | 8.79670 | 19 ft | 17 kts | 270° |
| 2026-05-06 12:12 | 53.04868 | 8.79427 | 17 ft | 23 kts | 269° |
| 2026-05-06 12:12 | 53.04865 | 8.79152 | 13 ft | 23 kts | 275° |
| 2026-05-06 12:13 | 53.04854 | 8.78874 | 10 ft | 24 kts | 267° |
| 2026-05-06 12:13 | 53.04919 | 8.78659 | 10 ft | 22 kts | 349° |
| 2026-05-06 12:13 | 53.05036 | 8.78566 | 13 ft | 16 kts | 321° |
| 2026-05-06 12:13 | 53.05114 | 8.78451 | 15 ft | 13 kts | 316° |
| 2026-05-06 12:14 | 53.05161 | 8.78341 | 15 ft | 7 kts | 314° |
| 2026-05-06 12:14 | 53.05205 | 8.78355 | 16 ft | 5 kts | 44° |
| 2026-05-06 12:14 | 53.05220 | 8.78393 | 17 ft | 2 kts | 64° |
| 2026-05-06 12:14 | 53.05220 | 8.78394 | 17 ft | 0 kts | 64° |